Grena, Denmark
Current Conditions -  °F | °C
As of 2:50 AM on Sunday 21 Dec 2014 (Local Time) from EKAH Reporting Station
Clear Clear  
Wind Chill: 30°   Ceiling: Unl
Heat Index: 37°   Visibility: 6mi
Dew Point: 30°   Wind: 12mph
Humidity: 75%   Direction: 280°W
Pressure: 29.91"   Gusts: NA
Location:  56.41°N, 10.89°E
Report Text: EKAH 210150Z AUTO 28010KT 9999NDV NCD 03/M01 Q1013
Loading
Personal Weather Stations






























Interactive Weather Map New forecast layout! Learn more

10-Day Weather Forecast

Advertisements
Track Severe Weather on mobile